Time;durP1;ratioP1;P1;durP2;ratioP2;P2;SDS_P1;SDS_P2;PMS_P1;PMS_P2;Temp;Humidity;BMP_temperature;BMP_pressure;BME280_temperature;BME280_humidity;BME280_pressure;Samples;Min_cycle;Max_cycle;Signal;HPM_P1;HPM_P2
2022/07/12 00:01:07;;;;;;;1.60;1.50;;;18.00;99.90;;;;;;5009733;28;20071;-51
2022/07/12 00:03:33;;;;;;;1.92;1.70;;;17.90;99.90;;;;;;5009639;28;20397;-54
2022/07/12 00:06:00;;;;;;;2.13;1.52;;;17.90;99.90;;;;;;5009622;28;20485;-52
2022/07/12 00:08:25;;;;;;;4.72;1.60;;;17.80;99.90;;;;;;5009254;28;20071;-49
2022/07/12 00:10:51;;;;;;;1.45;1.35;;;17.80;99.90;;;;;;5009558;28;20058;-52
2022/07/12 00:13:16;;;;;;;1.67;1.58;;;17.70;99.90;;;;;;5009582;28;20169;-47
2022/07/12 00:15:43;;;;;;;1.45;1.35;;;17.70;99.90;;;;;;5009431;28;20030;-46
2022/07/12 00:18:09;;;;;;;1.42;1.35;;;17.60;99.90;;;;;;5008737;28;20022;-47
2022/07/12 00:20:36;;;;;;;1.73;1.63;;;17.60;99.90;;;;;;5009684;28;20022;-48
2022/07/12 00:23:02;;;;;;;2.53;1.63;;;17.60;99.90;;;;;;5008267;28;20026;-47
2022/07/12 00:25:27;;;;;;;1.73;1.40;;;17.60;99.90;;;;;;5008634;28;20033;-50
2022/07/12 00:27:53;;;;;;;3.08;1.55;;;17.70;99.90;;;;;;5007899;28;20519;-47
2022/07/12 00:30:19;;;;;;;1.65;1.30;;;17.70;99.90;;;;;;5009616;28;20026;-51
2022/07/12 00:32:45;;;;;;;1.90;1.48;;;17.70;99.90;;;;;;5009164;28;20030;-49
2022/07/12 00:35:11;;;;;;;1.42;1.33;;;17.70;99.90;;;;;;5009161;28;20041;-46
2022/07/12 00:37:36;;;;;;;2.28;1.50;;;17.80;99.90;;;;;;5008431;28;20055;-51
2022/07/12 00:40:05;;;;;;;1.83;1.73;;;17.80;99.90;;;;;;5009388;28;20075;-48
2022/07/12 00:42:32;;;;;;;3.13;1.40;;;17.80;99.90;;;;;;5007769;28;20477;-50
2022/07/12 00:44:58;;;;;;;2.40;1.23;;;17.90;99.90;;;;;;5009217;28;20034;-47
2022/07/12 00:47:44;;;;;;;1.75;1.65;;;17.80;99.90;;;;;;5008444;28;20033;-50
2022/07/12 00:50:11;;;;;;;;;;;17.80;99.90;;;;;;5009624;28;20036;-53
2022/07/12 00:52:37;;;;;;;2.40;1.40;;;17.80;99.90;;;;;;5008857;28;19906;-50
2022/07/12 00:55:08;;;;;;;1.50;1.40;;;17.80;99.90;;;;;;5007648;28;20501;-48
2022/07/12 00:57:34;;;;;;;2.90;1.65;;;17.80;99.90;;;;;;5008304;28;20026;-50
2022/07/12 01:00:00;;;;;;;2.85;1.58;;;17.70;99.90;;;;;;5008948;28;20030;-51
2022/07/12 01:02:28;;;;;;;1.95;1.85;;;17.70;99.90;;;;;;5008882;28;20105;-48
2022/07/12 01:04:54;;;;;;;1.70;1.60;;;17.60;99.90;;;;;;5008802;28;20037;-51
2022/07/12 01:07:20;;;;;;;1.55;1.45;;;17.50;99.90;;;;;;5007909;28;20033;-50
2022/07/12 01:09:46;;;;;;;3.85;1.80;;;17.50;99.90;;;;;;5008854;28;20071;-49
2022/07/12 01:12:13;;;;;;;5.07;1.40;;;17.40;99.90;;;;;;5008962;28;20054;-52
2022/07/12 01:14:40;;;;;;;2.00;1.40;;;17.40;99.90;;;;;;5008880;28;20111;-47
2022/07/12 01:17:07;;;;;;;1.60;1.50;;;17.40;99.90;;;;;;5008699;28;20030;-52
2022/07/12 01:19:32;;;;;;;1.98;1.52;;;17.40;99.90;;;;;;5009706;28;20022;-52
2022/07/12 01:22:01;;;;;;;1.52;1.42;;;17.40;99.90;;;;;;5009976;28;20105;-49
2022/07/12 01:24:26;;;;;;;4.13;1.50;;;17.50;99.90;;;;;;5009671;28;20061;-51
2022/07/12 01:26:52;;;;;;;2.13;1.42;;;17.40;99.90;;;;;;5006885;28;20069;-46
2022/07/12 01:29:18;;;;;;;2.30;1.60;;;17.40;99.90;;;;;;5008651;28;20026;-49
2022/07/12 01:31:44;;;;;;;1.52;1.42;;;17.40;99.90;;;;;;5008658;28;20032;-51
2022/07/12 01:34:09;;;;;;;4.03;1.83;;;17.40;99.90;;;;;;5008508;28;20026;-48
2022/07/12 01:36:36;;;;;;;1.60;1.50;;;17.40;99.90;;;;;;5009348;28;20079;-50
2022/07/12 01:39:04;;;;;;;1.85;1.60;;;17.40;99.90;;;;;;5011245;28;20063;-50
2022/07/12 01:41:31;;;;;;;1.83;1.73;;;17.30;99.90;;;;;;5011949;28;20026;-54
2022/07/12 01:43:57;;;;;;;1.50;1.48;;;17.40;99.90;;;;;;5011860;28;20085;-48
2022/07/12 01:46:22;;;;;;;1.70;1.65;;;17.30;99.90;;;;;;5011690;28;20493;-51
2022/07/12 01:48:48;;;;;;;1.60;1.50;;;17.30;99.90;;;;;;5011277;28;20030;-49
2022/07/12 01:51:13;;;;;;;1.80;1.70;;;17.30;99.90;;;;;;5012041;28;20033;-48
2022/07/12 01:53:39;;;;;;;4.53;1.88;;;17.20;99.90;;;;;;5011942;28;20041;-47
2022/07/12 01:56:05;;;;;;;2.03;1.85;;;17.20;99.90;;;;;;5024123;23;20666;-55
2022/07/12 01:58:30;;;;;;;1.85;1.48;;;17.20;99.90;;;;;;5010816;28;20045;-56
2022/07/12 02:00:57;;;;;;;2.75;1.70;;;17.10;99.90;;;;;;5011560;28;20018;-57
2022/07/12 02:03:23;;;;;;;2.15;1.58;;;17.10;99.90;;;;;;5011420;28;20026;-51
2022/07/12 02:05:48;;;;;;;2.50;1.60;;;17.10;99.90;;;;;;4990635;28;20092;-53
2022/07/12 02:08:14;;;;;;;1.30;1.20;;;17.10;99.90;;;;;;4991199;28;20061;-57
2022/07/12 02:10:40;;;;;;;2.13;1.50;;;17.00;99.90;;;;;;5007136;28;20081;-55
2022/07/12 02:13:06;;;;;;;5.07;1.55;;;17.10;99.90;;;;;;4991862;28;20467;-55
2022/07/12 02:15:31;;;;;;;2.25;1.45;;;17.00;99.90;;;;;;5006792;28;20062;-53
2022/07/12 02:17:57;;;;;;;1.85;1.40;;;17.00;99.90;;;;;;4991183;28;20031;-55
2022/07/12 02:20:23;;;;;;;4.38;1.90;;;17.00;99.90;;;;;;4991814;28;20026;-54
2022/07/12 02:22:49;;;;;;;1.60;1.50;;;17.00;99.90;;;;;;4991844;28;20080;-56
2022/07/12 02:25:14;;;;;;;2.10;1.90;;;16.90;99.90;;;;;;5006867;28;20409;-56
2022/07/12 02:27:42;;;;;;;1.58;1.40;;;16.90;99.90;;;;;;5004918;28;20034;-53
2022/07/12 02:30:09;;;;;;;5.00;1.77;;;16.90;99.90;;;;;;4991963;28;20034;-56
2022/07/12 02:32:35;;;;;;;1.70;1.60;;;16.80;99.90;;;;;;4991703;28;20026;-56
2022/07/12 02:35:00;;;;;;;1.70;1.60;;;16.80;99.90;;;;;;4991979;28;20030;-55
2022/07/12 02:37:26;;;;;;;2.35;1.42;;;16.80;99.90;;;;;;4991296;28;20027;-54
2022/07/12 02:40:52;;;;;;;1.70;1.60;;;16.70;99.90;;;;;;4991994;28;20098;-55
2022/07/12 02:42:37;;;;;;;3.30;1.65;;;16.60;99.90;;;;;;4991491;28;20390;-54
2022/07/12 02:45:03;;;;;;;3.30;1.55;;;16.60;99.90;;;;;;4991743;28;20041;-54
2022/07/12 02:47:28;;;;;;;3.40;1.40;;;16.50;99.90;;;;;;4990498;28;20475;-56
2022/07/12 02:49:54;;;;;;;1.23;1.23;;;16.50;99.90;;;;;;5006616;28;20026;-57
2022/07/12 02:52:19;;;;;;;3.55;1.80;;;16.40;99.90;;;;;;4991346;28;20393;-57
2022/07/12 02:54:45;;;;;;;1.70;1.48;;;16.40;99.90;;;;;;4991002;28;20039;-53
2022/07/12 02:57:10;;;;;;;1.48;1.38;;;16.40;99.90;;;;;;4990589;28;20514;-55
2022/07/12 02:59:36;;;;;;;1.90;1.80;;;16.30;99.90;;;;;;4991524;28;20031;-54
2022/07/12 03:02:01;;;;;;;1.92;1.83;;;16.30;99.90;;;;;;4991218;28;20552;-55
2022/07/12 03:04:27;;;;;;;3.78;1.60;;;16.20;99.90;;;;;;4990943;28;20029;-56
2022/07/12 03:06:52;;;;;;;1.67;1.58;;;16.20;99.90;;;;;;4990505;28;20029;-52
2022/07/12 03:09:18;;;;;;;1.80;1.70;;;16.20;99.90;;;;;;4990559;28;20030;-55
2022/07/12 03:11:43;;;;;;;1.80;1.70;;;16.20;99.90;;;;;;4991136;28;20109;-51
2022/07/12 03:14:09;;;;;;;1.90;1.80;;;16.20;99.90;;;;;;4990706;28;20046;-55
2022/07/12 03:16:34;;;;;;;3.05;2.20;;;16.20;99.90;;;;;;4991014;28;20034;-54
2022/07/12 03:19:00;;;;;;;1.98;1.88;;;16.10;99.90;;;;;;4990156;28;20027;-54
2022/07/12 03:21:25;;;;;;;3.42;1.73;;;16.10;99.90;;;;;;4990962;28;20041;-55
2022/07/12 03:23:51;;;;;;;2.38;1.90;;;16.10;99.90;;;;;;4990648;28;20062;-55
2022/07/12 03:26:16;;;;;;;2.88;1.80;;;16.10;99.90;;;;;;4989380;28;20039;-56
2022/07/12 03:28:42;;;;;;;1.92;1.63;;;16.10;99.90;;;;;;4990003;28;20026;-55
2022/07/12 03:31:07;;;;;;;2.05;1.95;;;16.00;99.90;;;;;;4990862;28;20029;-54
2022/07/12 03:33:33;;;;;;;2.17;1.98;;;16.00;99.90;;;;;;4990606;28;20117;-55
2022/07/12 03:36:00;;;;;;;2.55;2.05;;;16.00;99.90;;;;;;4990896;28;20072;-52
2022/07/12 03:38:25;;;;;;;2.05;1.95;;;16.00;99.90;;;;;;5004970;28;20019;-56
2022/07/12 03:40:51;;;;;;;3.97;1.70;;;16.10;99.90;;;;;;4990552;28;20105;-54
2022/07/12 03:43:16;;;;;;;1.65;1.55;;;16.10;99.90;;;;;;4990497;28;20022;-55
2022/07/12 03:45:43;;;;;;;2.17;1.95;;;16.10;99.90;;;;;;4990316;28;20113;-53
2022/07/12 03:48:08;;;;;;;2.13;1.67;;;16.10;99.90;;;;;;4989689;28;20030;-55
2022/07/12 03:50:34;;;;;;;5.00;2.03;;;16.10;99.90;;;;;;5005454;28;20375;-52
2022/07/12 03:53:00;;;;;;;4.18;1.85;;;16.10;99.90;;;;;;4990222;28;20069;-51
2022/07/12 03:55:25;;;;;;;2.08;1.98;;;16.10;99.90;;;;;;4990060;28;20034;-55
2022/07/12 03:57:51;;;;;;;1.80;1.70;;;16.10;99.90;;;;;;4989688;28;20093;-54
2022/07/12 04:00:16;;;;;;;2.40;2.20;;;16.10;99.90;;;;;;4989420;28;20019;-53
2022/07/12 04:02:42;;;;;;;2.38;2.20;;;16.20;99.90;;;;;;4990238;28;20018;-52
2022/07/12 04:05:09;;;;;;;2.58;2.42;;;16.10;99.90;;;;;;4990019;28;20500;-54
2022/07/12 04:07:36;;;;;;;2.60;2.10;;;16.20;99.90;;;;;;4989569;28;20030;-55
2022/07/12 04:10:02;;;;;;;3.85;2.35;;;16.20;99.90;;;;;;4990170;28;20033;-54
2022/07/12 04:12:28;;;;;;;2.80;2.08;;;16.20;99.90;;;;;;4989963;28;20498;-54
2022/07/12 04:14:53;;;;;;;3.20;1.85;;;16.20;99.90;;;;;;5004900;28;20054;-50
2022/07/12 04:17:19;;;;;;;2.33;2.00;;;16.20;99.90;;;;;;4989419;28;20019;-56
2022/07/12 04:19:44;;;;;;;2.05;1.83;;;16.20;99.90;;;;;;4989738;28;20030;-56
2022/07/12 04:22:10;;;;;;;2.45;2.17;;;16.30;99.90;;;;;;4990010;28;20541;-56
2022/07/12 04:24:35;;;;;;;2.33;2.13;;;16.30;99.90;;;;;;5004880;28;20046;-50
2022/07/12 04:27:01;;;;;;;1.98;1.88;;;16.30;99.90;;;;;;4983390;28;20555;-53
2022/07/12 04:29:26;;;;;;;3.58;2.13;;;16.30;99.90;;;;;;4989279;28;20105;-57
2022/07/12 04:31:52;;;;;;;2.33;2.13;;;16.40;99.90;;;;;;4990425;28;20038;-48
2022/07/12 04:34:17;;;;;;;2.53;1.98;;;16.50;99.90;;;;;;4980706;28;20034;-51
2022/07/12 04:36:47;;;;;;;1.88;1.77;;;16.50;99.90;;;;;;4970082;28;20031;-55
2022/07/12 04:39:13;;;;;;;4.35;2.00;;;16.60;99.90;;;;;;4979451;28;20018;-55
2022/07/12 04:41:38;;;;;;;1.80;1.70;;;16.70;99.90;;;;;;4982300;28;20043;-53
2022/07/12 04:44:07;;;;;;;1.83;1.73;;;16.80;99.90;;;;;;4972148;28;20106;-52
2022/07/12 04:46:33;;;;;;;2.60;1.67;;;17.00;99.90;;;;;;4986330;28;20495;-53
2022/07/12 04:48:59;;;;;;;6.50;2.03;;;17.10;99.90;;;;;;4974140;28;20076;-47
2022/07/12 04:51:24;;;;;;;2.17;2.08;;;17.30;99.90;;;;;;4971640;28;20019;-50
2022/07/12 04:53:49;;;;;;;1.80;1.70;;;17.50;99.90;;;;;;4977188;28;20481;-55
2022/07/12 04:56:15;;;;;;;2.45;1.80;;;17.60;99.90;;;;;;4971220;28;20034;-52
2022/07/12 04:58:40;;;;;;;2.38;1.90;;;17.90;99.90;;;;;;4988816;28;20026;-52
2022/07/12 05:01:07;;;;;;;3.78;2.03;;;18.20;99.90;;;;;;4989165;28;20030;-50
2022/07/12 05:03:32;;;;;;;1.65;1.55;;;18.80;99.90;;;;;;4989237;28;20087;-53
2022/07/12 05:05:58;;;;;;;8.95;1.83;;;19.80;99.90;;;;;;4989109;28;20034;-55
2022/07/12 05:08:24;;;;;;;11.70;3.20;;;20.90;99.90;;;;;;4986709;28;20432;-51
2022/07/12 05:10:49;;;;;;;1.60;1.48;;;21.90;99.90;;;;;;4990256;28;20031;-56
2022/07/12 05:13:15;;;;;;;1.50;1.40;;;23.00;99.50;;;;;;4992626;28;20042;-54
2022/07/12 05:15:40;;;;;;;1.50;1.38;;;23.90;97.30;;;;;;4992517;28;20061;-52
2022/07/12 05:18:05;;;;;;;3.97;1.40;;;24.70;95.80;;;;;;4991822;28;20030;-53
2022/07/12 05:20:31;;;;;;;2.67;1.60;;;25.50;94.80;;;;;;4992524;28;20050;-47
2022/07/12 05:22:56;;;;;;;2.22;1.80;;;26.40;93.10;;;;;;4992501;28;20033;-53
2022/07/12 05:25:22;;;;;;;3.95;1.48;;;26.90;91.50;;;;;;4992398;28;20037;-54
2022/07/12 05:27:47;;;;;;;4.57;1.73;;;27.00;91.10;;;;;;5006784;28;20034;-55
2022/07/12 05:30:13;;;;;;;4.57;1.63;;;27.40;90.80;;;;;;4992515;28;20031;-49
2022/07/12 05:32:38;;;;;;;2.05;1.85;;;27.80;90.10;;;;;;4992251;28;20058;-45
2022/07/12 05:35:04;;;;;;;2.08;1.98;;;27.50;89.40;;;;;;4992032;28;20022;-48
2022/07/12 05:37:30;;;;;;;1.70;1.60;;;27.80;88.80;;;;;;4991540;28;20393;-53
2022/07/12 05:39:55;;;;;;;4.22;1.83;;;27.70;88.70;;;;;;4992336;28;20018;-52
2022/07/12 05:42:21;;;;;;;4.00;1.83;;;27.90;87.60;;;;;;4992312;28;20058;-52
2022/07/12 05:44:46;;;;;;;1.50;1.40;;;27.40;87.90;;;;;;4992142;28;20034;-51
2022/07/12 05:47:12;;;;;;;2.58;1.35;;;27.10;89.50;;;;;;4991370;28;20080;-50
2022/07/12 05:49:38;;;;;;;1.75;1.30;;;26.80;89.80;;;;;;4992004;28;20393;-51
2022/07/12 05:54:48;;;;;;;2.83;1.02;;;26.70;90.20;;;;;;4991738;28;20041;-49
2022/07/12 05:57:17;;;;;;;2.15;1.05;;;26.60;90.60;;;;;;4991360;28;20397;-50
2022/07/12 05:59:43;;;;;;;1.83;1.73;;;26.50;91.00;;;;;;4991906;28;20398;-56
2022/07/12 06:02:09;;;;;;;2.70;1.20;;;26.70;90.60;;;;;;4992451;28;20023;-54
2022/07/12 06:04:35;;;;;;;4.30;1.13;;;27.20;89.90;;;;;;4992195;28;20570;-54
2022/07/12 06:07:00;;;;;;;2.78;1.50;;;27.80;88.90;;;;;;4990046;28;20066;-50
2022/07/12 06:09:26;;;;;;;1.85;1.52;;;28.20;88.10;;;;;;4991849;28;20109;-48
2022/07/12 06:11:52;;;;;;;1.20;1.20;;;28.70;86.70;;;;;;4991807;28;20026;-52
2022/07/12 06:14:18;;;;;;;1.77;1.67;;;29.00;85.90;;;;;;4991608;28;20030;-52
2022/07/12 06:16:43;;;;;;;1.48;1.38;;;29.50;84.30;;;;;;4991370;28;20098;-52
2022/07/12 06:19:08;;;;;;;1.58;1.40;;;29.70;83.90;;;;;;4991132;28;20054;-53
2022/07/12 06:21:34;;;;;;;2.55;1.20;;;29.50;84.60;;;;;;4991578;28;20516;-47
2022/07/12 06:24:00;;;;;;;1.60;1.50;;;29.50;84.50;;;;;;4990986;28;20047;-52
2022/07/12 06:26:25;;;;;;;6.75;1.15;;;29.60;84.60;;;;;;4991535;28;20019;-53
2022/07/12 06:28:51;;;;;;;1.00;1.00;;;30.30;82.50;;;;;;4991022;28;20547;-49
2022/07/12 06:31:16;;;;;;;3.15;1.20;;;30.90;80.70;;;;;;4991356;28;20018;-50
2022/07/12 06:33:42;;;;;;;1.15;1.10;;;31.00;80.40;;;;;;4991300;28;20493;-54
2022/07/12 06:36:07;;;;;;;1.23;1.13;;;31.40;79.30;;;;;;4991398;28;20105;-52
2022/07/12 06:38:33;;;;;;;1.63;1.10;;;31.80;78.10;;;;;;5005687;28;20029;-54
2022/07/12 06:40:58;;;;;;;3.33;1.50;;;31.50;77.70;;;;;;4991348;28;20088;-50
2022/07/12 06:43:24;;;;;;;1.40;1.30;;;31.20;77.80;;;;;;4991343;28;20428;-52
2022/07/12 06:45:49;;;;;;;1.35;1.00;;;30.90;78.40;;;;;;4991078;28;20032;-46
2022/07/12 06:48:15;;;;;;;2.55;1.40;;;30.60;79.50;;;;;;4989920;28;20034;-54
2022/07/12 06:50:40;;;;;;;1.40;1.30;;;30.70;78.90;;;;;;5005342;28;20023;-50
2022/07/12 06:53:06;;;;;;;2.92;1.13;;;31.20;77.40;;;;;;4991058;28;20448;-48
2022/07/12 06:55:31;;;;;;;3.33;1.23;;;31.60;76.90;;;;;;4990965;28;20039;-52
2022/07/12 06:57:57;;;;;;;1.05;0.98;;;31.60;77.60;;;;;;4977385;28;20030;-48
2022/07/12 07:00:22;;;;;;;1.58;1.33;;;31.90;76.60;;;;;;4971540;28;20063;-47
2022/07/12 07:02:48;;;;;;;3.03;1.10;;;32.60;74.90;;;;;;4985620;28;20102;-47
2022/07/12 07:05:15;;;;;;;6.57;1.02;;;32.80;74.00;;;;;;4990311;28;20026;-46
2022/07/12 07:07:41;;;;;;;4.00;0.90;;;33.20;73.30;;;;;;4981773;28;20505;-46
2022/07/12 07:10:06;;;;;;;0.77;0.77;;;33.70;72.20;;;;;;4988575;28;20027;-50
2022/07/12 07:12:32;;;;;;;1.08;1.08;;;33.70;70.70;;;;;;4971373;28;20084;-49
2022/07/12 07:14:57;;;;;;;4.75;0.90;;;33.10;71.20;;;;;;4971469;28;20495;-47
2022/07/12 07:17:23;;;;;;;3.22;1.13;;;32.40;72.60;;;;;;4970944;28;20031;-54
2022/07/12 07:19:49;;;;;;;3.97;1.08;;;32.20;72.90;;;;;;4988124;28;20041;-55
2022/07/12 07:22:14;;;;;;;5.25;1.00;;;31.60;73.90;;;;;;4990679;28;20478;-53
2022/07/12 07:24:40;;;;;;;2.70;1.00;;;31.40;74.60;;;;;;4990778;28;20045;-57
2022/07/12 07:27:06;;;;;;;0.95;0.95;;;32.10;73.30;;;;;;4986268;28;20104;-54
2022/07/12 07:32:16;;;;;;;3.03;1.08;;;31.20;74.00;;;;;;4990680;28;20608;-54
2022/07/12 07:34:42;;;;;;;1.70;1.20;;;30.30;75.90;;;;;;4989590;28;20113;-53
2022/07/12 07:37:08;;;;;;;1.40;1.20;;;30.10;76.40;;;;;;4989857;28;20037;-50
2022/07/12 07:39:34;;;;;;;1.55;1.08;;;30.10;76.50;;;;;;4990207;28;20030;-52
2022/07/12 07:41:59;;;;;;;2.67;1.10;;;30.50;76.10;;;;;;4990817;28;20033;-52
2022/07/12 07:44:25;;;;;;;4.55;1.63;;;31.10;74.70;;;;;;5005540;28;20030;-52
2022/07/12 07:46:50;;;;;;;1.30;1.20;;;31.70;74.00;;;;;;4989388;28;20052;-52
2022/07/12 07:49:16;;;;;;;1.10;0.80;;;31.30;73.80;;;;;;4989721;28;20034;-52
2022/07/12 07:51:41;;;;;;;0.93;0.80;;;30.60;75.20;;;;;;4990394;28;20041;-53
2022/07/12 07:54:07;;;;;;;1.02;0.85;;;30.90;74.30;;;;;;4989908;28;20509;-51
2022/07/12 07:56:32;;;;;;;2.10;1.20;;;31.40;73.80;;;;;;5018130;23;20053;-48
2022/07/12 07:58:58;;;;;;;1.67;0.98;;;32.30;72.00;;;;;;5008780;28;20022;-51
2022/07/12 08:01:42;;;;;;;0.75;0.63;;;33.00;70.60;;;;;;5009322;28;20569;-45
2022/07/12 08:04:11;;;;;;;1.50;0.80;;;33.00;70.60;;;;;;4990200;28;20023;-47
2022/07/12 08:06:37;;;;;;;0.75;0.70;;;33.60;69.90;;;;;;4999013;28;20044;-52
2022/07/12 08:09:04;;;;;;;2.47;0.82;;;33.70;69.20;;;;;;5022010;28;20028;-49
2022/07/12 08:11:29;;;;;;;4.85;0.88;;;34.00;68.80;;;;;;5009231;28;20083;-51
2022/07/12 08:13:55;;;;;;;1.30;0.70;;;34.60;67.50;;;;;;5009138;28;20034;-50
2022/07/12 08:16:20;;;;;;;2.35;0.80;;;33.90;67.50;;;;;;4990908;28;20034;-48
2022/07/12 08:18:46;;;;;;;2.22;1.27;;;33.30;69.10;;;;;;5007349;28;20029;-49
2022/07/12 08:21:11;;;;;;;3.35;1.00;;;32.00;69.80;;;;;;5036700;28;20037;-47
2022/07/12 08:23:37;;;;;;;2.17;0.88;;;30.50;72.50;;;;;;5009250;28;20048;-47
2022/07/12 08:26:03;;;;;;;8.90;7.00;;;30.20;73.70;;;;;;5009471;28;20022;-48
2022/07/12 08:28:28;;;;;;;7.13;5.50;;;29.40;75.30;;;;;;5044984;28;20031;-48
2022/07/12 08:30:54;;;;;;;12.27;11.00;;;28.60;76.30;;;;;;5016751;28;20022;-47
2022/07/12 08:33:19;;;;;;;4.53;2.00;;;28.00;78.00;;;;;;5004839;28;20034;-47
2022/07/12 08:35:45;;;;;;;6.22;0.90;;;27.80;79.00;;;;;;4990008;28;20060;-48
2022/07/12 08:38:11;;;;;;;4.07;0.90;;;27.30;80.40;;;;;;5003280;28;20034;-49
2022/07/12 08:40:36;;;;;;;0.75;0.68;;;27.50;81.70;;;;;;5008975;28;20086;-52
2022/07/12 08:43:02;;;;;;;4.35;0.80;;;27.90;80.20;;;;;;4998087;28;20072;-44
2022/07/12 08:45:28;;;;;;;1.65;0.90;;;28.20;78.40;;;;;;4989349;28;20054;-46
2022/07/12 08:47:54;;;;;;;0.80;0.80;;;27.90;79.10;;;;;;5006265;28;20037;-50
2022/07/12 08:50:22;;;;;;;0.85;0.85;;;27.20;80.40;;;;;;5009186;28;20026;-49
2022/07/12 08:52:50;;;;;;;0.75;0.75;;;26.60;81.30;;;;;;5007849;28;20028;-47
2022/07/12 08:55:29;;;;;;;0.90;0.90;;;26.40;82.20;;;;;;5008715;28;20511;-51
2022/07/12 08:58:02;;;;;;;0.60;0.60;;;26.20;82.90;;;;;;5008555;28;20063;-52
2022/07/12 09:00:28;;;;;;;1.20;0.70;;;25.90;83.00;;;;;;4989932;28;20030;-49
2022/07/12 09:02:59;;;;;;;4.57;0.77;;;25.60;83.00;;;;;;5009092;28;20022;-50
2022/07/12 09:05:27;;;;;;;0.90;0.90;;;25.50;83.00;;;;;;5008866;28;20044;-57
2022/07/12 09:08:08;;;;;;;0.75;0.70;;;25.30;83.70;;;;;;5008371;28;20034;-53
2022/07/12 09:10:50;;;;;;;1.35;0.90;;;25.20;84.80;;;;;;5007887;28;20507;-51
2022/07/12 09:13:16;;;;;;;0.70;0.70;;;25.00;84.60;;;;;;5008811;28;20062;-51
2022/07/12 09:15:41;;;;;;;1.25;0.90;;;25.00;84.60;;;;;;5008737;28;20453;-49
2022/07/12 09:18:15;;;;;;;0.80;0.80;;;24.90;84.70;;;;;;5006835;28;20079;-51
2022/07/12 09:20:45;;;;;;;2.65;0.52;;;25.20;85.40;;;;;;4988418;28;20439;-47
2022/07/12 09:23:11;;;;;;;1.25;0.60;;;25.50;82.30;;;;;;5006067;28;20034;-49
2022/07/12 09:25:38;;;;;;;0.95;0.40;;;25.40;81.30;;;;;;5006922;28;20037;-48
2022/07/12 09:28:06;;;;;;;1.17;0.63;;;25.40;80.20;;;;;;5005893;28;20043;-50
2022/07/12 09:30:32;;;;;;;0.68;0.68;;;25.40;80.70;;;;;;5008161;28;20092;-44
2022/07/12 09:36:06;;;;;;;5.40;4.18;;;25.90;79.80;;;;;;4994262;28;20088;-48
2022/07/12 09:38:45;;;;;;;2.53;2.33;;;26.40;79.00;;;;;;4995876;28;20412;-48
2022/07/12 09:41:16;;;;;;;1.20;0.70;;;26.60;78.60;;;;;;5007001;28;20037;-46
2022/07/12 09:43:43;;;;;;;0.70;0.70;;;26.70;79.00;;;;;;5008278;28;20014;-48
2022/07/12 09:46:10;;;;;;;0.65;0.65;;;26.30;79.30;;;;;;5019418;28;20027;-46
2022/07/12 09:48:36;;;;;;;1.10;0.60;;;26.30;78.80;;;;;;5009081;28;20666;-44
2022/07/12 09:51:03;;;;;;;0.80;0.80;;;26.50;78.10;;;;;;5007922;28;20034;-45
2022/07/12 09:53:34;;;;;;;2.85;0.50;;;26.80;78.30;;;;;;5018283;28;20026;-47
2022/07/12 09:56:06;;;;;;;3.97;2.17;;;27.10;76.40;;;;;;5006988;28;20038;-45
2022/07/12 09:58:40;;;;;;;1.00;0.73;;;27.10;75.70;;;;;;5000533;28;20022;-46
2022/07/12 10:01:07;;;;;;;0.75;0.75;;;26.80;77.00;;;;;;4990932;28;20022;-45
2022/07/12 10:03:34;;;;;;;1.17;0.65;;;26.70;77.90;;;;;;4992015;28;20027;-46
2022/07/12 10:06:02;;;;;;;0.70;0.70;;;26.40;78.80;;;;;;4994181;28;20079;-46
2022/07/12 10:08:29;;;;;;;1.00;0.73;;;26.60;78.20;;;;;;4992570;28;20042;-46
2022/07/12 10:10:55;;;;;;;0.50;0.50;;;26.60;77.90;;;;;;5001197;28;20034;-49
2022/07/12 10:13:21;;;;;;;1.50;0.70;;;26.70;78.60;;;;;;5002941;28;20050;-47
2022/07/12 10:15:49;;;;;;;0.60;0.60;;;26.90;78.00;;;;;;4992034;28;20156;-52
2022/07/12 10:18:24;;;;;;;0.80;0.80;;;27.10;77.20;;;;;;5006156;28;20030;-49
2022/07/12 10:20:50;;;;;;;3.03;0.60;;;27.20;77.20;;;;;;5012624;28;20026;-51
2022/07/12 10:23:36;;;;;;;3.60;0.82;;;27.00;75.80;;;;;;5013459;28;20037;-48
2022/07/12 10:26:25;;;;;;;0.50;0.50;;;27.00;77.70;;;;;;5012558;28;20030;-51
2022/07/12 10:29:03;;;;;;;0.43;0.43;;;26.90;76.70;;;;;;5008014;28;20028;-49
2022/07/12 10:31:37;;;;;;;0.63;0.60;;;26.90;76.60;;;;;;4996275;28;20026;-47
2022/07/12 10:34:14;;;;;;;0.50;0.50;;;26.70;76.50;;;;;;4993112;28;20022;-49
2022/07/12 10:36:55;;;;;;;1.30;0.60;;;26.60;77.60;;;;;;5010762;28;20030;-50
2022/07/12 10:39:25;;;;;;;1.25;1.23;;;26.50;78.00;;;;;;5011311;28;20082;-46
2022/07/12 10:42:12;;;;;;;1.67;0.82;;;26.60;78.20;;;;;;5010829;28;20026;-49
2022/07/12 10:44:47;;;;;;;8.20;6.15;;;26.70;78.60;;;;;;5009463;28;20026;-47
2022/07/12 10:47:15;;;;;;;;;;;26.70;77.10;;;;;;5009393;28;20037;-49
2022/07/12 10:49:58;;;;;;;1.45;0.90;;;26.70;78.50;;;;;;5026362;28;19913;-44
2022/07/12 10:52:26;;;;;;;0.82;0.70;;;26.70;78.00;;;;;;5010536;28;20034;-49
2022/07/12 10:54:54;;;;;;;0.73;0.60;;;26.50;79.00;;;;;;4996613;28;20538;-48
2022/07/12 10:57:39;;;;;;;0.52;0.52;;;26.50;79.00;;;;;;4988871;28;20031;-47
2022/07/12 11:00:07;;;;;;;0.57;0.50;;;26.60;78.80;;;;;;4990459;28;20410;-45
2022/07/12 11:02:32;;;;;;;2.38;0.70;;;26.50;78.30;;;;;;4990654;28;20056;-50
2022/07/12 11:04:58;;;;;;;0.95;0.70;;;26.50;78.00;;;;;;4990522;28;20038;-49
2022/07/12 11:07:24;;;;;;;0.50;0.50;;;26.50;78.10;;;;;;5004669;28;20125;-50
2022/07/12 11:09:53;;;;;;;1.33;0.60;;;26.30;77.60;;;;;;5009603;28;20026;-49
2022/07/12 11:12:18;;;;;;;1.08;0.38;;;26.30;77.30;;;;;;5010294;28;20478;-50
2022/07/12 11:14:45;;;;;;;0.40;0.40;;;26.20;76.40;;;;;;5009743;28;20029;-47
2022/07/12 11:17:11;;;;;;;0.70;0.70;;;26.30;76.30;;;;;;5009728;28;20525;-52
2022/07/12 11:19:36;;;;;;;0.50;0.50;;;26.20;75.80;;;;;;5009857;28;20086;-48
2022/07/12 11:22:02;;;;;;;0.52;0.52;;;26.00;76.70;;;;;;5009642;28;20030;-47
2022/07/12 11:24:30;;;;;;;0.63;0.63;;;26.00;75.90;;;;;;5008825;28;20124;-51
2022/07/12 11:26:56;;;;;;;2.42;0.70;;;26.10;76.00;;;;;;5008022;28;20501;-48
2022/07/12 11:29:22;;;;;;;0.57;0.57;;;26.10;75.50;;;;;;5008951;28;20026;-50
2022/07/12 11:31:49;;;;;;;0.52;0.52;;;26.20;75.80;;;;;;5008524;28;20045;-47
2022/07/12 11:34:22;;;;;;;1.33;0.60;;;26.20;77.10;;;;;;5024579;28;20052;-50
2022/07/12 11:36:52;;;;;;;0.65;0.47;;;26.20;77.50;;;;;;5009221;28;20075;-48
2022/07/12 11:39:30;;;;;;;1.27;1.17;;;26.30;76.40;;;;;;5009359;28;20562;-47
2022/07/12 11:41:57;;;;;;;1.48;0.50;;;26.30;76.60;;;;;;5005618;28;20117;-48
2022/07/12 11:44:46;;;;;;;0.50;0.50;;;26.30;76.20;;;;;;5009720;28;20022;-47
2022/07/12 11:47:13;;;;;;;2.42;0.65;;;26.30;77.00;;;;;;4999266;28;20041;-47
2022/07/12 11:49:45;;;;;;;0.90;0.70;;;26.40;76.20;;;;;;4990274;28;20023;-49
2022/07/12 11:52:15;;;;;;;1.10;0.63;;;26.30;76.40;;;;;;4990043;28;20026;-46
2022/07/12 11:54:40;;;;;;;3.25;0.68;;;26.30;77.30;;;;;;4989884;28;20038;-47
2022/07/12 11:57:09;;;;;;;0.70;0.70;;;26.30;77.50;;;;;;4989924;28;20121;-48
2022/07/12 11:59:35;;;;;;;1.10;0.68;;;26.40;76.30;;;;;;5001148;28;20026;-45
2022/07/12 12:02:09;;;;;;;1.38;0.57;;;26.30;75.10;;;;;;5009451;28;20478;-45
2022/07/12 12:04:49;;;;;;;0.73;0.40;;;26.30;75.20;;;;;;5009692;28;20041;-44
2022/07/12 12:07:16;;;;;;;2.30;0.50;;;26.30;74.70;;;;;;5008221;28;20042;-46
2022/07/12 12:10:14;;;;;;;0.57;0.40;;;26.40;75.30;;;;;;5009435;28;20030;-45
2022/07/12 12:12:51;;;;;;;1.00;0.60;;;26.40;75.80;;;;;;5009470;28;20028;-47
2022/07/12 12:15:17;;;;;;;0.50;0.50;;;26.60;74.90;;;;;;5009413;28;20105;-52
2022/07/12 12:17:55;;;;;;;2.65;0.63;;;26.60;74.40;;;;;;5007426;28;20056;-45
2022/07/12 12:20:21;;;;;;;2.28;0.57;;;26.50;74.50;;;;;;5009047;28;20166;-47
2022/07/12 12:22:49;;;;;;;0.80;0.57;;;26.40;74.70;;;;;;5009306;28;20022;-45
2022/07/12 12:25:16;;;;;;;0.60;0.60;;;26.30;74.50;;;;;;5008327;28;20055;-46
2022/07/12 12:27:42;;;;;;;2.70;0.73;;;26.30;75.40;;;;;;5008649;28;20101;-47
2022/07/12 12:30:08;;;;;;;0.63;0.63;;;26.30;75.10;;;;;;5007840;28;20169;-44
2022/07/12 12:32:47;;;;;;;1.48;0.63;;;26.30;74.20;;;;;;5009229;28;20528;-44
2022/07/12 12:35:15;;;;;;;0.50;0.50;;;26.30;74.70;;;;;;5005094;28;20386;-46
2022/07/12 12:37:47;;;;;;;2.35;0.63;;;26.30;75.60;;;;;;4988979;28;20135;-46
2022/07/12 12:40:18;;;;;;;6.93;6.22;;;26.40;74.80;;;;;;4989609;28;20030;-47
2022/07/12 12:42:43;;;;;;;5.82;5.13;;;26.60;73.60;;;;;;4989654;28;20026;-44
2022/07/12 12:45:20;;;;;;;2.00;0.70;;;26.50;73.00;;;;;;4989511;28;20482;-44
2022/07/12 12:47:57;;;;;;;1.52;0.60;;;26.60;74.00;;;;;;4988930;28;20030;-44
2022/07/12 12:51:05;;;;;;;1.25;1.15;;;26.60;73.00;;;;;;4988246;28;20026;-48
2022/07/12 12:53:31;;;;;;;0.63;0.50;;;26.60;73.10;;;;;;5029246;28;20029;-43
2022/07/12 12:55:57;;;;;;;1.17;0.50;;;26.60;73.40;;;;;;5014437;28;20041;-55
2022/07/12 12:58:26;;;;;;;1.42;0.70;;;26.60;73.30;;;;;;5008002;28;20512;-48